Terminal Aerodrome Forecast
Issued by NWS Upton, NY

Home | Current Version | Previous Version | Text Only | Print | Product List | Glossary On
Versions: 1 2 3 4 5 6 7 8 9 10 11 12 13 14 15 16 17 18 19 20 21 22 23 24 25 26 27 28 29 30 31 32 33 34 35
489
FTUS41 KOKX 250303 CCA
TAFISP
TAF COR
KISP 250303Z 2503/2524 02008KT 4SM -SHRA OVC005
     FM250500 06005KT 3SM BR SCT005 BKN030
     FM250800 08010KT 5SM BR OVC006
     FM251000 08013G20KT 2SM RA BR OVC008
     FM251200 10015G24KT 1SM RA BR OVC008
     FM251800 05009KT 2SM -RA BR OVC004
     FM252200 36005KT 4SM BR BKN005=

USA.gov is the U.S. government's official web portal to all federal, state and local government web resources and services.